sensor_id;sensor_type;location;lat;lon;timestamp;pressure;altitude;pressure_sealevel;temperature;humidity
74973;BME280;63529;56.320;43.990;2022-12-07T00:00:55;101527.94;;;-7.63;61.32
74973;BME280;63529;56.320;43.990;2022-12-07T00:03:21;101523.69;;;-7.65;61.36
74973;BME280;63529;56.320;43.990;2022-12-07T00:05:47;101530.63;;;-7.65;61.21
74973;BME280;63529;56.320;43.990;2022-12-07T00:08:13;101523.81;;;-7.66;61.44
74973;BME280;63529;56.320;43.990;2022-12-07T00:10:39;101522.16;;;-7.67;61.30
74973;BME280;63529;56.320;43.990;2022-12-07T00:13:04;101526.16;;;-7.63;61.39
74973;BME280;63529;56.320;43.990;2022-12-07T00:15:30;101518.50;;;-7.65;61.44
74973;BME280;63529;56.320;43.990;2022-12-07T00:17:58;101519.34;;;-7.64;61.54
74973;BME280;63529;56.320;43.990;2022-12-07T00:20:24;101519.34;;;-7.64;61.54
74973;BME280;63529;56.320;43.990;2022-12-07T00:22:50;101512.50;;;-7.65;61.51
74973;BME280;63529;56.320;43.990;2022-12-07T00:25:16;101503.34;;;-7.71;61.55
74973;BME280;63529;56.320;43.990;2022-12-07T00:27:42;101511.97;;;-7.70;61.45
74973;BME280;63529;56.320;43.990;2022-12-07T00:30:08;101512.91;;;-7.71;61.48
74973;BME280;63529;56.320;43.990;2022-12-07T00:32:34;101505.13;;;-7.71;61.62
74973;BME280;63529;56.320;43.990;2022-12-07T00:35:00;101507.94;;;-7.74;61.68
74973;BME280;63529;56.320;43.990;2022-12-07T00:37:26;101513.00;;;-7.73;61.55
74973;BME280;63529;56.320;43.990;2022-12-07T00:39:52;101514.06;;;-7.75;61.72
74973;BME280;63529;56.320;43.990;2022-12-07T00:42:17;101511.47;;;-7.75;61.81
74973;BME280;63529;56.320;43.990;2022-12-07T00:44:43;101515.06;;;-7.78;61.62
74973;BME280;63529;56.320;43.990;2022-12-07T00:47:09;101508.44;;;-7.82;61.75
74973;BME280;63529;56.320;43.990;2022-12-07T00:49:35;101512.06;;;-7.84;61.77
74973;BME280;63529;56.320;43.990;2022-12-07T00:52:01;101511.13;;;-7.83;61.80
74973;BME280;63529;56.320;43.990;2022-12-07T00:54:27;101512.28;;;-7.87;61.78
74973;BME280;63529;56.320;43.990;2022-12-07T00:56:53;101514.13;;;-7.89;61.91
74973;BME280;63529;56.320;43.990;2022-12-07T00:59:19;101520.44;;;-7.94;61.86
74973;BME280;63529;56.320;43.990;2022-12-07T01:01:45;101521.38;;;-7.95;61.75
74973;BME280;63529;56.320;43.990;2022-12-07T01:04:10;101512.16;;;-7.99;61.82
74973;BME280;63529;56.320;43.990;2022-12-07T01:06:36;101512.16;;;-7.99;62.21
74973;BME280;63529;56.320;43.990;2022-12-07T01:09:02;101503.84;;;-8.04;62.06
74973;BME280;63529;56.320;43.990;2022-12-07T01:11:30;101514.09;;;-8.02;62.16
74973;BME280;63529;56.320;43.990;2022-12-07T01:13:57;101512.53;;;-8.05;62.17
74973;BME280;63529;56.320;43.990;2022-12-07T01:16:25;101520.31;;;-8.05;62.36
74973;BME280;63529;56.320;43.990;2022-12-07T01:18:55;101514.41;;;-8.07;62.23
74973;BME280;63529;56.320;43.990;2022-12-07T01:21:23;101505.00;;;-8.08;62.31
74973;BME280;63529;56.320;43.990;2022-12-07T01:23:50;101513.66;;;-8.09;62.27
74973;BME280;63529;56.320;43.990;2022-12-07T01:26:18;101512.00;;;-8.10;62.46
74973;BME280;63529;56.320;43.990;2022-12-07T01:28:45;101513.78;;;-8.10;62.50
74973;BME280;63529;56.320;43.990;2022-12-07T01:31:13;101506.81;;;-8.10;62.37
74973;BME280;63529;56.320;43.990;2022-12-07T01:33:41;101508.59;;;-8.10;62.41
74973;BME280;63529;56.320;43.990;2022-12-07T01:36:22;101515.53;;;-8.11;62.39
74973;BME280;63529;56.320;43.990;2022-12-07T01:38:51;101508.91;;;-8.15;62.25
74973;BME280;63529;56.320;43.990;2022-12-07T01:41:19;101514.91;;;-8.14;62.38
74973;BME280;63529;56.320;43.990;2022-12-07T01:44:09;101506.41;;;-8.16;62.39
74973;BME280;63529;56.320;43.990;2022-12-07T01:46:35;101509.09;;;-8.18;62.50
74973;BME280;63529;56.320;43.990;2022-12-07T01:49:03;101504.13;;;-8.21;62.46
74973;BME280;63529;56.320;43.990;2022-12-07T01:51:29;101506.72;;;-8.21;62.58
74973;BME280;63529;56.320;43.990;2022-12-07T01:53:55;101508.44;;;-8.22;62.72
74973;BME280;63529;56.320;43.990;2022-12-07T01:56:24;101504.19;;;-8.23;62.59
74973;BME280;63529;56.320;43.990;2022-12-07T01:58:52;101505.03;;;-8.22;62.67
74973;BME280;63529;56.320;43.990;2022-12-07T02:01:20;101509.38;;;-8.23;62.53
74973;BME280;63529;56.320;43.990;2022-12-07T02:03:46;101514.56;;;-8.23;62.20
74973;BME280;63529;56.320;43.990;2022-12-07T02:06:17;101506.91;;;-8.24;62.36
74973;BME280;63529;56.320;43.990;2022-12-07T02:08:45;101512.06;;;-8.24;62.24
74973;BME280;63529;56.320;43.990;2022-12-07T02:11:11;101511.34;;;-8.26;62.13
74973;BME280;63529;56.320;43.990;2022-12-07T02:13:39;101507.94;;;-8.27;61.88
74973;BME280;63529;56.320;43.990;2022-12-07T02:24:14;101516.53;;;-8.26;62.02
74973;BME280;63529;56.320;43.990;2022-12-07T02:32:16;101514.66;;;-8.24;61.84
74973;BME280;63529;56.320;43.990;2022-12-07T02:35:00;101518.81;;;-8.22;61.96
74973;BME280;63529;56.320;43.990;2022-12-07T02:40:13;101508.38;;;-8.20;61.49
74973;BME280;63529;56.320;43.990;2022-12-07T02:42:46;101517.78;;;-8.19;61.55
74973;BME280;63529;56.320;43.990;2022-12-07T02:45:17;101510.03;;;-8.19;61.58
74973;BME280;63529;56.320;43.990;2022-12-07T02:47:48;101513.22;;;-8.15;61.57
74973;BME280;63529;56.320;43.990;2022-12-07T02:50:14;101510.63;;;-8.15;61.57
74973;BME280;63529;56.320;43.990;2022-12-07T02:52:42;101518.34;;;-8.14;61.48
74973;BME280;63529;56.320;43.990;2022-12-07T02:55:08;101520.00;;;-8.13;61.57
74973;BME280;63529;56.320;43.990;2022-12-07T02:57:58;101510.56;;;-8.14;61.60
74973;BME280;63529;56.320;43.990;2022-12-07T03:00:27;101518.34;;;-8.14;61.47
74973;BME280;63529;56.320;43.990;2022-12-07T03:03:03;101523.50;;;-8.14;61.27
74973;BME280;63529;56.320;43.990;2022-12-07T03:08:14;101520.94;;;-8.14;61.35
74973;BME280;63529;56.320;43.990;2022-12-07T03:11:04;101530.53;;;-8.16;61.46
74973;BME280;63529;56.320;43.990;2022-12-07T03:13:49;101535.72;;;-8.16;61.54
74973;BME280;63529;56.320;43.990;2022-12-07T03:16:22;101525.75;;;-8.22;61.66
74973;BME280;63529;56.320;43.990;2022-12-07T03:19:03;101535.94;;;-8.19;61.55
74973;BME280;63529;56.320;43.990;2022-12-07T03:21:34;101528.34;;;-8.22;61.70
74973;BME280;63529;56.320;43.990;2022-12-07T03:24:06;101533.50;;;-8.22;61.93
74973;BME280;63529;56.320;43.990;2022-12-07T03:26:38;101523.25;;;-8.24;61.86
74973;BME280;63529;56.320;43.990;2022-12-07T03:29:12;101518.28;;;-8.27;61.79
74973;BME280;63529;56.320;43.990;2022-12-07T03:31:43;101525.25;;;-8.27;61.72
74973;BME280;63529;56.320;43.990;2022-12-07T03:36:48;101522.81;;;-8.30;61.69
74973;BME280;63529;56.320;43.990;2022-12-07T03:39:26;101528.94;;;-8.31;62.02
74973;BME280;63529;56.320;43.990;2022-12-07T03:41:54;101541.06;;;-8.32;62.14
74973;BME280;63529;56.320;43.990;2022-12-07T03:44:22;101539.63;;;-8.36;62.07
74973;BME280;63529;56.320;43.990;2022-12-07T03:47:00;101548.22;;;-8.35;62.21
74973;BME280;63529;56.320;43.990;2022-12-07T03:49:46;101548.31;;;-8.37;62.36
74973;BME280;63529;56.320;43.990;2022-12-07T03:55:12;101552.13;;;-8.42;62.17
74973;BME280;63529;56.320;43.990;2022-12-07T03:57:41;101547.16;;;-8.45;62.58
74973;BME280;63529;56.320;43.990;2022-12-07T04:00:10;101546.44;;;-8.48;62.56
74973;BME280;63529;56.320;43.990;2022-12-07T04:02:39;101548.38;;;-8.51;62.59
74973;BME280;63529;56.320;43.990;2022-12-07T04:05:07;101553.72;;;-8.54;62.74
74973;BME280;63529;56.320;43.990;2022-12-07T04:07:33;101551.22;;;-8.56;62.84
74973;BME280;63529;56.320;43.990;2022-12-07T04:09:58;101560.75;;;-8.56;63.08
74973;BME280;63529;56.320;43.990;2022-12-07T04:12:24;101557.53;;;-8.60;62.92
74973;BME280;63529;56.320;43.990;2022-12-07T04:14:50;101563.63;;;-8.61;63.35
74973;BME280;63529;56.320;43.990;2022-12-07T04:17:16;101557.72;;;-8.63;63.41
74973;BME280;63529;56.320;43.990;2022-12-07T04:19:42;101553.56;;;-8.65;63.35
74973;BME280;63529;56.320;43.990;2022-12-07T04:22:08;101563.00;;;-8.64;63.44
74973;BME280;63529;56.320;43.990;2022-12-07T04:24:34;101559.59;;;-8.65;63.47
74973;BME280;63529;56.320;43.990;2022-12-07T04:27:00;101560.50;;;-8.66;63.64
74973;BME280;63529;56.320;43.990;2022-12-07T04:29:26;101552.75;;;-8.66;63.85
74973;BME280;63529;56.320;43.990;2022-12-07T04:31:53;101557.94;;;-8.66;63.88
74973;BME280;63529;56.320;43.990;2022-12-07T04:34:19;101545.06;;;-8.67;63.70
74973;BME280;63529;56.320;43.990;2022-12-07T04:36:46;101557.00;;;-8.65;63.86
74973;BME280;63529;56.320;43.990;2022-12-07T04:39:26;101550.06;;;-8.64;63.85
74973;BME280;63529;56.320;43.990;2022-12-07T04:41:52;101551.81;;;-8.65;64.30
74973;BME280;63529;56.320;43.990;2022-12-07T04:44:19;101554.19;;;-8.62;64.23
74973;BME280;63529;56.320;43.990;2022-12-07T04:46:46;101560.19;;;-8.61;64.21
74973;BME280;63529;56.320;43.990;2022-12-07T04:49:13;101556.63;;;-8.59;64.24
74973;BME280;63529;56.320;43.990;2022-12-07T04:51:40;101557.44;;;-8.58;64.45
74973;BME280;63529;56.320;43.990;2022-12-07T04:54:06;101560.03;;;-8.58;64.39
74973;BME280;63529;56.320;43.990;2022-12-07T04:56:32;101566.75;;;-8.56;64.42
74973;BME280;63529;56.320;43.990;2022-12-07T04:59:01;101564.16;;;-8.56;64.84
74973;BME280;63529;56.320;43.990;2022-12-07T05:01:27;101556.31;;;-8.54;64.75
74973;BME280;63529;56.320;43.990;2022-12-07T05:03:53;101573.41;;;-8.52;64.95
74973;BME280;63529;56.320;43.990;2022-12-07T05:06:19;101563.78;;;-8.50;65.02
74973;BME280;63529;56.320;43.990;2022-12-07T05:08:46;101560.28;;;-8.49;64.91
74973;BME280;63529;56.320;43.990;2022-12-07T05:11:13;101567.97;;;-8.47;65.03
74973;BME280;63529;56.320;43.990;2022-12-07T05:14:00;101572.84;;;-8.42;65.18
74973;BME280;63529;56.320;43.990;2022-12-07T05:16:26;101570.25;;;-8.42;65.32
74973;BME280;63529;56.320;43.990;2022-12-07T05:18:52;101568.41;;;-8.40;65.23
74973;BME280;63529;56.320;43.990;2022-12-07T05:21:18;101567.47;;;-8.39;65.41
74973;BME280;63529;56.320;43.990;2022-12-07T05:23:44;101575.13;;;-8.38;65.43
74973;BME280;63529;56.320;43.990;2022-12-07T05:26:10;101577.63;;;-8.36;65.67
74973;BME280;63529;56.320;43.990;2022-12-07T05:28:36;101572.25;;;-8.33;65.71
74973;BME280;63529;56.320;43.990;2022-12-07T05:31:02;101562.59;;;-8.31;65.70
74973;BME280;63529;56.320;43.990;2022-12-07T05:33:28;101569.53;;;-8.32;65.80
74973;BME280;63529;56.320;43.990;2022-12-07T05:35:53;101570.91;;;-8.26;66.00
74973;BME280;63529;56.320;43.990;2022-12-07T05:38:19;101566.47;;;-8.24;66.00
74973;BME280;63529;56.320;43.990;2022-12-07T05:40:45;101562.84;;;-8.22;66.05
74973;BME280;63529;56.320;43.990;2022-12-07T05:43:11;101564.13;;;-8.14;66.15
74973;BME280;63529;56.320;43.990;2022-12-07T05:45:37;101567.34;;;-8.11;65.95
74973;BME280;63529;56.320;43.990;2022-12-07T05:48:03;101568.72;;;-8.05;65.77
74973;BME280;63529;56.320;43.990;2022-12-07T05:50:29;101561.47;;;-8.00;65.74
74973;BME280;63529;56.320;43.990;2022-12-07T05:53:01;101561.25;;;-7.97;65.70
74973;BME280;63529;56.320;43.990;2022-12-07T05:55:27;101561.91;;;-7.94;65.76
74973;BME280;63529;56.320;43.990;2022-12-07T05:57:53;101561.50;;;-7.87;65.43
74973;BME280;63529;56.320;43.990;2022-12-07T06:00:37;101565.34;;;-7.80;65.43
74973;BME280;63529;56.320;43.990;2022-12-07T06:03:03;101554.88;;;-7.79;65.26
74973;BME280;63529;56.320;43.990;2022-12-07T06:05:29;101557.19;;;-7.74;64.98
74973;BME280;63529;56.320;43.990;2022-12-07T06:07:55;101555.00;;;-7.68;64.91
74973;BME280;63529;56.320;43.990;2022-12-07T06:10:21;101545.38;;;-7.66;64.68
74973;BME280;63529;56.320;43.990;2022-12-07T06:12:47;101549.09;;;-7.57;64.92
74973;BME280;63529;56.320;43.990;2022-12-07T06:15:12;101557.22;;;-7.49;64.66
74973;BME280;63529;56.320;43.990;2022-12-07T06:17:39;101551.50;;;-7.41;64.15
74973;BME280;63529;56.320;43.990;2022-12-07T06:20:06;101552.44;;;-7.29;64.21
74973;BME280;63529;56.320;43.990;2022-12-07T06:22:32;101559.41;;;-7.17;63.80
74973;BME280;63529;56.320;43.990;2022-12-07T06:24:58;101570.78;;;-7.07;63.53
74973;BME280;63529;56.320;43.990;2022-12-07T06:27:24;101563.41;;;-7.00;63.31
74973;BME280;63529;56.320;43.990;2022-12-07T06:29:50;101563.63;;;-6.91;62.80
74973;BME280;63529;56.320;43.990;2022-12-07T06:32:16;101563.81;;;-6.81;62.64
74973;BME280;63529;56.320;43.990;2022-12-07T06:34:42;101558.81;;;-6.71;62.52
74973;BME280;63529;56.320;43.990;2022-12-07T06:37:08;101564.81;;;-6.58;62.27
74973;BME280;63529;56.320;43.990;2022-12-07T06:39:34;101569.84;;;-6.44;61.79
74973;BME280;63529;56.320;43.990;2022-12-07T06:42:00;101563.44;;;-6.27;61.60
74973;BME280;63529;56.320;43.990;2022-12-07T06:44:26;101560.91;;;-6.16;60.97
74973;BME280;63529;56.320;43.990;2022-12-07T06:46:52;101559.19;;;-6.04;60.62
74973;BME280;63529;56.320;43.990;2022-12-07T06:49:18;101564.81;;;-5.18;60.46
74973;BME280;63529;56.320;43.990;2022-12-07T06:51:44;101556.16;;;-4.73;58.54
74973;BME280;63529;56.320;43.990;2022-12-07T06:54:11;101557.63;;;-4.37;57.95
74973;BME280;63529;56.320;43.990;2022-12-07T06:56:37;101557.59;;;-3.94;56.52
74973;BME280;63529;56.320;43.990;2022-12-07T06:59:04;101559.47;;;-3.85;55.72
74973;BME280;63529;56.320;43.990;2022-12-07T07:01:32;101563.28;;;-3.68;54.75
74973;BME280;63529;56.320;43.990;2022-12-07T07:03:58;101554.41;;;-3.14;54.03
74973;BME280;63529;56.320;43.990;2022-12-07T07:06:25;101558.66;;;-2.82;51.93
74973;BME280;63529;56.320;43.990;2022-12-07T07:08:51;101561.44;;;-2.74;51.58
74973;BME280;63529;56.320;43.990;2022-12-07T07:11:17;101562.44;;;-2.65;51.10
74973;BME280;63529;56.320;43.990;2022-12-07T07:13:44;101569.91;;;-2.61;50.84
74973;BME280;63529;56.320;43.990;2022-12-07T07:16:10;101577.31;;;-2.56;50.34
74973;BME280;63529;56.320;43.990;2022-12-07T07:18:36;101573.16;;;-2.68;50.01
74973;BME280;63529;56.320;43.990;2022-12-07T07:21:03;101582.53;;;-2.56;50.31
74973;BME280;63529;56.320;43.990;2022-12-07T07:23:29;101577.50;;;-2.38;50.41
74973;BME280;63529;56.320;43.990;2022-12-07T07:25:55;101588.13;;;-2.11;50.50
74973;BME280;63529;56.320;43.990;2022-12-07T07:28:22;101585.38;;;-2.19;49.84
74973;BME280;63529;56.320;43.990;2022-12-07T07:30:48;101577.56;;;-1.80;49.72
74973;BME280;63529;56.320;43.990;2022-12-07T07:33:14;101582.38;;;-1.56;49.18
74973;BME280;63529;56.320;43.990;2022-12-07T07:35:41;101587.13;;;-0.86;48.25
74973;BME280;63529;56.320;43.990;2022-12-07T07:38:07;101571.03;;;0.18;46.97
74973;BME280;63529;56.320;43.990;2022-12-07T07:40:33;101582.09;;;1.68;45.19
74973;BME280;63529;56.320;43.990;2022-12-07T07:42:59;101573.88;;;3.01;42.11
74973;BME280;63529;56.320;43.990;2022-12-07T07:45:26;101570.88;;;4.05;39.49
74973;BME280;63529;56.320;43.990;2022-12-07T07:47:53;101569.59;;;4.92;38.72
74973;BME280;63529;56.320;43.990;2022-12-07T07:50:19;101572.75;;;5.61;37.39
74973;BME280;63529;56.320;43.990;2022-12-07T07:52:45;101565.81;;;6.17;36.86
74973;BME280;63529;56.320;43.990;2022-12-07T07:55:11;101563.63;;;6.77;35.83
74973;BME280;63529;56.320;43.990;2022-12-07T07:57:39;101572.53;;;7.32;34.06
74973;BME280;63529;56.320;43.990;2022-12-07T08:00:09;101566.75;;;7.70;32.63
74973;BME280;63529;56.320;43.990;2022-12-07T08:02:39;101570.50;;;8.08;32.55
74973;BME280;63529;56.320;43.990;2022-12-07T08:05:06;101574.06;;;8.35;32.38
74973;BME280;63529;56.320;43.990;2022-12-07T08:07:32;101574.88;;;8.49;31.57
74973;BME280;63529;56.320;43.990;2022-12-07T08:09:58;101565.84;;;8.57;31.96
74973;BME280;63529;56.320;43.990;2022-12-07T08:12:24;101566.25;;;8.60;32.17
74973;BME280;63529;56.320;43.990;2022-12-07T08:14:50;101570.75;;;8.60;31.59
74973;BME280;63529;56.320;43.990;2022-12-07T08:17:16;101567.50;;;8.58;31.69
74973;BME280;63529;56.320;43.990;2022-12-07T08:19:42;101568.31;;;8.52;31.16
74973;BME280;63529;56.320;43.990;2022-12-07T08:22:08;101563.81;;;8.46;31.46
74973;BME280;63529;56.320;43.990;2022-12-07T08:24:35;101560.13;;;8.47;31.19
74973;BME280;63529;56.320;43.990;2022-12-07T08:27:02;101564.63;;;8.53;30.61
74973;BME280;63529;56.320;43.990;2022-12-07T08:29:27;101571.19;;;8.63;30.34
74973;BME280;63529;56.320;43.990;2022-12-07T08:31:53;101566.25;;;8.67;30.39
74973;BME280;63529;56.320;43.990;2022-12-07T08:34:19;101571.97;;;8.77;30.61
74973;BME280;63529;56.320;43.990;2022-12-07T08:36:45;101568.06;;;8.86;30.43
74973;BME280;63529;56.320;43.990;2022-12-07T08:39:11;101566.41;;;8.98;30.86
74973;BME280;63529;56.320;43.990;2022-12-07T08:41:37;101559.59;;;9.16;31.08
74973;BME280;63529;56.320;43.990;2022-12-07T08:44:03;101560.81;;;9.20;30.10
74973;BME280;63529;56.320;43.990;2022-12-07T08:46:59;101564.28;;;9.27;30.03
74973;BME280;63529;56.320;43.990;2022-12-07T08:49:33;101567.53;;;9.29;29.80
74973;BME280;63529;56.320;43.990;2022-12-07T08:52:00;101558.56;;;9.17;29.46
74973;BME280;63529;56.320;43.990;2022-12-07T08:54:28;101563.59;;;8.80;29.34
74973;BME280;63529;56.320;43.990;2022-12-07T08:56:54;101553.72;;;8.08;29.81
74973;BME280;63529;56.320;43.990;2022-12-07T08:59:22;101551.72;;;6.66;31.09
74973;BME280;63529;56.320;43.990;2022-12-07T09:01:48;101558.94;;;5.00;31.89
74973;BME280;63529;56.320;43.990;2022-12-07T09:04:14;101573.06;;;3.40;33.56
74973;BME280;63529;56.320;43.990;2022-12-07T09:06:41;101566.03;;;2.03;35.70
74973;BME280;63529;56.320;43.990;2022-12-07T09:09:08;101565.03;;;0.95;37.52
74973;BME280;63529;56.320;43.990;2022-12-07T09:11:34;101567.00;;;0.06;38.50
74973;BME280;63529;56.320;43.990;2022-12-07T09:14:00;101574.91;;;-0.67;39.61
74973;BME280;63529;56.320;43.990;2022-12-07T09:16:27;101571.28;;;-1.31;40.99
74973;BME280;63529;56.320;43.990;2022-12-07T09:18:54;101569.97;;;-1.83;42.16
74973;BME280;63529;56.320;43.990;2022-12-07T09:21:20;101573.25;;;-2.30;43.13
74973;BME280;63529;56.320;43.990;2022-12-07T09:23:46;101569.72;;;-2.69;44.18
74973;BME280;63529;56.320;43.990;2022-12-07T09:26:12;101571.41;;;-2.98;45.13
74973;BME280;63529;56.320;43.990;2022-12-07T09:28:38;101577.03;;;-3.24;45.48
74973;BME280;63529;56.320;43.990;2022-12-07T09:31:04;101569.09;;;-3.43;46.16
74973;BME280;63529;56.320;43.990;2022-12-07T09:33:31;101569.16;;;-3.55;46.75
74973;BME280;63529;56.320;43.990;2022-12-07T09:35:58;101577.03;;;-3.66;47.06
74973;BME280;63529;56.320;43.990;2022-12-07T09:38:23;101572.31;;;-3.72;47.43
74973;BME280;63529;56.320;43.990;2022-12-07T09:40:53;101576.97;;;-3.75;47.71
74973;BME280;63529;56.320;43.990;2022-12-07T09:43:25;101571.56;;;-3.84;47.98
74973;BME280;63529;56.320;43.990;2022-12-07T09:45:52;101573.25;;;-3.94;48.33
74973;BME280;63529;56.320;43.990;2022-12-07T09:50:49;101584.22;;;-4.11;48.75
74973;BME280;63529;56.320;43.990;2022-12-07T09:53:36;101576.06;;;-4.18;49.01
74973;BME280;63529;56.320;43.990;2022-12-07T09:56:04;101576.56;;;-4.24;49.20
74973;BME280;63529;56.320;43.990;2022-12-07T09:58:31;101567.78;;;-4.23;49.36
74973;BME280;63529;56.320;43.990;2022-12-07T10:01:05;101573.00;;;-4.23;49.64
74973;BME280;63529;56.320;43.990;2022-12-07T10:03:38;101564.22;;;-4.22;49.88
74973;BME280;63529;56.320;43.990;2022-12-07T10:06:05;101568.34;;;-4.19;49.91
74973;BME280;63529;56.320;43.990;2022-12-07T10:08:32;101568.97;;;-4.16;50.46
74973;BME280;63529;56.320;43.990;2022-12-07T10:11:01;101568.13;;;-4.16;50.48
74973;BME280;63529;56.320;43.990;2022-12-07T10:16:02;101571.44;;;-4.14;50.62
74973;BME280;63529;56.320;43.990;2022-12-07T10:18:36;101563.47;;;-4.13;50.55
74973;BME280;63529;56.320;43.990;2022-12-07T10:23:39;101558.13;;;-4.11;50.88
74973;BME280;63529;56.320;43.990;2022-12-07T10:29:24;101560.66;;;-4.10;51.21
74973;BME280;63529;56.320;43.990;2022-12-07T10:32:00;101564.91;;;-4.08;51.17
74973;BME280;63529;56.320;43.990;2022-12-07T10:34:37;101566.09;;;-4.13;51.66
74973;BME280;63529;56.320;43.990;2022-12-07T10:42:21;101571.59;;;-4.27;51.58
74973;BME280;63529;56.320;43.990;2022-12-07T10:44:49;101566.84;;;-4.33;51.90
74973;BME280;63529;56.320;43.990;2022-12-07T10:47:36;101574.22;;;-4.38;52.17
74973;BME280;63529;56.320;43.990;2022-12-07T10:55:33;101571.41;;;-4.57;52.34
74973;BME280;63529;56.320;43.990;2022-12-07T11:08:47;101563.16;;;-4.85;53.70
74973;BME280;63529;56.320;43.990;2022-12-07T11:11:34;101564.81;;;-4.95;53.85
74973;BME280;63529;56.320;43.990;2022-12-07T11:22:51;101569.38;;;-5.43;54.66
74973;BME280;63529;56.320;43.990;2022-12-07T11:33:29;101545.75;;;-5.87;55.77
74973;BME280;63529;56.320;43.990;2022-12-07T11:36:10;101548.09;;;-5.95;56.00
74973;BME280;63529;56.320;43.990;2022-12-07T11:41:06;101552.66;;;-6.10;56.38
74973;BME280;63529;56.320;43.990;2022-12-07T11:44:02;101544.72;;;-6.19;56.69
74973;BME280;63529;56.320;43.990;2022-12-07T11:51:49;101544.91;;;-6.46;57.55
74973;BME280;63529;56.320;43.990;2022-12-07T11:54:25;101543.78;;;-6.55;57.93
74973;BME280;63529;56.320;43.990;2022-12-07T11:56:53;101550.69;;;-6.67;58.04
74973;BME280;63529;56.320;43.990;2022-12-07T11:59:40;101540.00;;;-6.75;58.23
74973;BME280;63529;56.320;43.990;2022-12-07T12:02:15;101551.06;;;-6.84;58.74
74973;BME280;63529;56.320;43.990;2022-12-07T12:05:13;101550.03;;;-6.94;58.86
74973;BME280;63529;56.320;43.990;2022-12-07T12:07:40;101550.56;;;-7.02;59.39
74973;BME280;63529;56.320;43.990;2022-12-07T12:10:18;101550.16;;;-7.08;59.71
74973;BME280;63529;56.320;43.990;2022-12-07T12:13:07;101556.69;;;-7.16;59.92
74973;BME280;63529;56.320;43.990;2022-12-07T12:21:12;101563.31;;;-7.37;60.62
74973;BME280;63529;56.320;43.990;2022-12-07T12:23:45;101562.91;;;-7.44;61.03
74973;BME280;63529;56.320;43.990;2022-12-07T12:26:25;101560.81;;;-7.51;61.14
74973;BME280;63529;56.320;43.990;2022-12-07T12:28:57;101562.06;;;-7.57;61.41
74973;BME280;63529;56.320;43.990;2022-12-07T12:33:56;101556.78;;;-7.68;61.77
74973;BME280;63529;56.320;43.990;2022-12-07T12:41:56;101548.22;;;-7.83;61.93
74973;BME280;63529;56.320;43.990;2022-12-07T12:47:02;101556.50;;;-7.90;62.19
74973;BME280;63529;56.320;43.990;2022-12-07T12:51:59;101558.78;;;-7.99;62.55
74973;BME280;63529;56.320;43.990;2022-12-07T12:54:28;101555.53;;;-8.02;62.58
74973;BME280;63529;56.320;43.990;2022-12-07T12:57:20;101553.38;;;-8.08;62.45
74973;BME280;63529;56.320;43.990;2022-12-07T13:02:47;101541.81;;;-8.17;62.63
74973;BME280;63529;56.320;43.990;2022-12-07T13:10:28;101542.53;;;-8.28;62.87
74973;BME280;63529;56.320;43.990;2022-12-07T13:13:28;101542.72;;;-8.31;63.04
74973;BME280;63529;56.320;43.990;2022-12-07T13:20:59;101517.34;;;-8.38;63.51
74973;BME280;63529;56.320;43.990;2022-12-07T13:23:54;101536.59;;;-8.42;63.66
74973;BME280;63529;56.320;43.990;2022-12-07T13:26:35;101534.09;;;-8.44;63.77
74973;BME280;63529;56.320;43.990;2022-12-07T13:31:47;101541.25;;;-8.48;63.70
74973;BME280;63529;56.320;43.990;2022-12-07T13:37:02;101525.25;;;-8.54;63.85
74973;BME280;63529;56.320;43.990;2022-12-07T13:39:35;101533.88;;;-8.54;63.95
74973;BME280;63529;56.320;43.990;2022-12-07T13:42:26;101521.94;;;-8.56;64.28
74973;BME280;63529;56.320;43.990;2022-12-07T13:44:53;101531.47;;;-8.57;64.05
74973;BME280;63529;56.320;43.990;2022-12-07T13:47:31;101528.13;;;-8.59;64.36
74973;BME280;63529;56.320;43.990;2022-12-07T13:49:57;101529.97;;;-8.61;64.31
74973;BME280;63529;56.320;43.990;2022-12-07T13:52:28;101525.72;;;-8.62;64.42
74973;BME280;63529;56.320;43.990;2022-12-07T13:54:58;101526.66;;;-8.63;64.53
74973;BME280;63529;56.320;43.990;2022-12-07T13:57:25;101536.28;;;-8.65;64.31
74973;BME280;63529;56.320;43.990;2022-12-07T13:59:52;101529.47;;;-8.66;64.46
74973;BME280;63529;56.320;43.990;2022-12-07T14:02:27;101526.94;;;-8.67;64.53
74973;BME280;63529;56.320;43.990;2022-12-07T14:07:56;101531.50;;;-8.71;64.48
74973;BME280;63529;56.320;43.990;2022-12-07T14:10:32;101526.44;;;-8.72;64.43
74973;BME280;63529;56.320;43.990;2022-12-07T14:13:00;101517.06;;;-8.75;64.41
74973;BME280;63529;56.320;43.990;2022-12-07T14:15:34;101540.38;;;-8.75;64.79
74973;BME280;63529;56.320;43.990;2022-12-07T14:18:02;101516.34;;;-8.77;64.27
74973;BME280;63529;56.320;43.990;2022-12-07T14:20:38;101517.28;;;-8.78;64.35
74973;BME280;63529;56.320;43.990;2022-12-07T14:23:06;101517.38;;;-8.80;64.56
74973;BME280;63529;56.320;43.990;2022-12-07T14:25:48;101520.16;;;-8.83;64.73
74973;BME280;63529;56.320;43.990;2022-12-07T14:28:34;101515.91;;;-8.84;64.58
74973;BME280;63529;56.320;43.990;2022-12-07T14:31:01;101512.50;;;-8.84;64.58
74973;BME280;63529;56.320;43.990;2022-12-07T14:33:28;101506.59;;;-8.86;64.32
74973;BME280;63529;56.320;43.990;2022-12-07T14:35:55;101524.88;;;-8.89;64.44
74973;BME280;63529;56.320;43.990;2022-12-07T14:38:24;101514.53;;;-8.89;64.30
74973;BME280;63529;56.320;43.990;2022-12-07T14:40:51;101525.69;;;-8.89;64.51
74973;BME280;63529;56.320;43.990;2022-12-07T14:43:18;101524.16;;;-8.91;64.43
74973;BME280;63529;56.320;43.990;2022-12-07T14:45:45;101521.66;;;-8.93;64.55
74973;BME280;63529;56.320;43.990;2022-12-07T14:48:15;101522.66;;;-8.95;64.48
74973;BME280;63529;56.320;43.990;2022-12-07T14:50:47;101521.00;;;-8.96;64.60
74973;BME280;63529;56.320;43.990;2022-12-07T14:53:22;101520.34;;;-9.00;64.79